sensor_id;sensor_type;location;lat;lon;timestamp;pressure;altitude;pressure_sealevel;temperature
24740;BMP280;45234;48.148;17.128;2023-05-10T00:00:32;100030.50;;;11.55
24740;BMP280;45234;48.148;17.128;2023-05-10T00:02:59;100023.88;;;11.52
24740;BMP280;45234;48.148;17.128;2023-05-10T00:05:27;100018.91;;;11.51
24740;BMP280;45234;48.148;17.128;2023-05-10T00:07:53;100022.09;;;11.46
24740;BMP280;45234;48.148;17.128;2023-05-10T00:10:20;100023.47;;;11.42
24740;BMP280;45234;48.148;17.128;2023-05-10T00:12:47;100021.47;;;11.31
24740;BMP280;45234;48.148;17.128;2023-05-10T00:15:14;100015.84;;;11.21
24740;BMP280;45234;48.148;17.128;2023-05-10T00:17:41;100014.66;;;11.17
24740;BMP280;45234;48.148;17.128;2023-05-10T00:20:08;100015.81;;;11.14
24740;BMP280;45234;48.148;17.128;2023-05-10T00:22:35;100012.63;;;11.06
24740;BMP280;45234;48.148;17.128;2023-05-10T00:25:03;100010.59;;;11.01
24740;BMP280;45234;48.148;17.128;2023-05-10T00:27:30;100010.19;;;10.98
24740;BMP280;45234;48.148;17.128;2023-05-10T00:29:56;100011.78;;;10.99
24740;BMP280;45234;48.148;17.128;2023-05-10T00:32:23;100007.97;;;10.94
24740;BMP280;45234;48.148;17.128;2023-05-10T00:34:50;100003.19;;;10.91
24740;BMP280;45234;48.148;17.128;2023-05-10T00:37:17;100003.56;;;10.88
24740;BMP280;45234;48.148;17.128;2023-05-10T00:39:45;99997.78;;;10.86
24740;BMP280;45234;48.148;17.128;2023-05-10T00:42:12;99997.56;;;10.88
24740;BMP280;45234;48.148;17.128;2023-05-10T00:44:41;99993.00;;;10.83
24740;BMP280;45234;48.148;17.128;2023-05-10T00:47:08;99994.97;;;10.81
24740;BMP280;45234;48.148;17.128;2023-05-10T00:49:36;99996.13;;;10.79
24740;BMP280;45234;48.148;17.128;2023-05-10T00:52:03;99994.16;;;10.74
24740;BMP280;45234;48.148;17.128;2023-05-10T00:54:30;99990.91;;;10.72
24740;BMP280;45234;48.148;17.128;2023-05-10T00:56:57;99984.13;;;10.71
24740;BMP280;45234;48.148;17.128;2023-05-10T00:59:25;99978.75;;;10.66
24740;BMP280;45234;48.148;17.128;2023-05-10T01:01:52;99985.31;;;10.62
24740;BMP280;45234;48.148;17.128;2023-05-10T01:04:19;99983.31;;;10.64
24740;BMP280;45234;48.148;17.128;2023-05-10T01:06:52;99978.28;;;10.56
24740;BMP280;45234;48.148;17.128;2023-05-10T01:09:21;99978.50;;;10.54
24740;BMP280;45234;48.148;17.128;2023-05-10T01:11:49;99969.53;;;10.57
24740;BMP280;45234;48.148;17.128;2023-05-10T01:14:18;99973.53;;;10.53
24740;BMP280;45234;48.148;17.128;2023-05-10T01:16:48;99964.53;;;10.55
24740;BMP280;45234;48.148;17.128;2023-05-10T01:19:26;99967.31;;;10.54
24740;BMP280;45234;48.148;17.128;2023-05-10T01:35:43;99954.47;;;10.39
24740;BMP280;45234;48.148;17.128;2023-05-10T01:44:16;99953.47;;;10.34
24740;BMP280;45234;48.148;17.128;2023-05-10T01:46:48;99957.88;;;10.33
24740;BMP280;45234;48.148;17.128;2023-05-10T01:49:25;99956.44;;;10.31
24740;BMP280;45234;48.148;17.128;2023-05-10T01:51:56;99959.47;;;10.34
24740;BMP280;45234;48.148;17.128;2023-05-10T01:54:25;99951.28;;;10.31
24740;BMP280;45234;48.148;17.128;2023-05-10T01:56:59;99953.22;;;10.28
24740;BMP280;45234;48.148;17.128;2023-05-10T01:59:30;99951.59;;;10.21
24740;BMP280;45234;48.148;17.128;2023-05-10T02:01:59;99941.44;;;10.19
24740;BMP280;45234;48.148;17.128;2023-05-10T02:04:27;99947.97;;;10.15
24740;BMP280;45234;48.148;17.128;2023-05-10T02:06:55;99940.16;;;10.09
24740;BMP280;45234;48.148;17.128;2023-05-10T02:09:26;99945.31;;;10.02
24740;BMP280;45234;48.148;17.128;2023-05-10T02:11:57;99941.47;;;9.98
24740;BMP280;45234;48.148;17.128;2023-05-10T02:14:26;99936.69;;;9.95
24740;BMP280;45234;48.148;17.128;2023-05-10T02:16:54;99935.06;;;9.94
24740;BMP280;45234;48.148;17.128;2023-05-10T02:19:22;99941.84;;;9.88
24740;BMP280;45234;48.148;17.128;2023-05-10T02:22:10;99928.66;;;9.83
24740;BMP280;45234;48.148;17.128;2023-05-10T02:24:39;99939.00;;;9.83
24740;BMP280;45234;48.148;17.128;2023-05-10T02:27:08;99932.84;;;9.84
24740;BMP280;45234;48.148;17.128;2023-05-10T02:29:37;99930.63;;;9.81
24740;BMP280;45234;48.148;17.128;2023-05-10T02:32:04;99933.78;;;9.77
24740;BMP280;45234;48.148;17.128;2023-05-10T02:34:33;99932.97;;;9.76
24740;BMP280;45234;48.148;17.128;2023-05-10T02:37:00;99932.00;;;9.77
24740;BMP280;45234;48.148;17.128;2023-05-10T02:39:29;99943.53;;;9.75
24740;BMP280;45234;48.148;17.128;2023-05-10T02:41:57;99937.13;;;9.71
24740;BMP280;45234;48.148;17.128;2023-05-10T02:44:27;99933.31;;;9.67
24740;BMP280;45234;48.148;17.128;2023-05-10T02:46:55;99931.31;;;9.69
24740;BMP280;45234;48.148;17.128;2023-05-10T02:49:22;99936.06;;;9.65
24740;BMP280;45234;48.148;17.128;2023-05-10T02:51:52;99929.66;;;9.61
24740;BMP280;45234;48.148;17.128;2023-05-10T02:54:27;99939.22;;;9.60
24740;BMP280;45234;48.148;17.128;2023-05-10T02:56:56;99933.44;;;9.37
24740;BMP280;45234;48.148;17.128;2023-05-10T02:59:23;99936.38;;;9.55
24740;BMP280;45234;48.148;17.128;2023-05-10T03:01:50;99936.38;;;9.55
24740;BMP280;45234;48.148;17.128;2023-05-10T03:04:19;99938.63;;;9.58
24740;BMP280;45234;48.148;17.128;2023-05-10T03:06:46;99937.03;;;9.57
24740;BMP280;45234;48.148;17.128;2023-05-10T03:09:13;99932.84;;;9.56
24740;BMP280;45234;48.148;17.128;2023-05-10T03:17:41;99938.72;;;9.50
24740;BMP280;45234;48.148;17.128;2023-05-10T03:20:24;99933.94;;;9.47
24740;BMP280;45234;48.148;17.128;2023-05-10T03:23:07;99929.13;;;9.44
24740;BMP280;45234;48.148;17.128;2023-05-10T03:25:38;99934.94;;;9.46
24740;BMP280;45234;48.148;17.128;2023-05-10T03:28:07;99935.72;;;9.47
24740;BMP280;45234;48.148;17.128;2023-05-10T03:30:34;99929.38;;;9.49
24740;BMP280;45234;48.148;17.128;2023-05-10T03:33:06;99937.94;;;9.50
24740;BMP280;45234;48.148;17.128;2023-05-10T03:35:37;99939.81;;;9.56
24740;BMP280;45234;48.148;17.128;2023-05-10T03:38:05;99940.41;;;9.58
24740;BMP280;45234;48.148;17.128;2023-05-10T03:40:32;99937.03;;;9.57
24740;BMP280;45234;48.148;17.128;2023-05-10T03:42:59;99937.03;;;9.57
24740;BMP280;45234;48.148;17.128;2023-05-10T03:45:26;99940.41;;;9.58
24740;BMP280;45234;48.148;17.128;2023-05-10T03:47:53;99946.78;;;9.62
24740;BMP280;45234;48.148;17.128;2023-05-10T03:50:21;99953.38;;;9.65
24740;BMP280;45234;48.148;17.128;2023-05-10T03:52:48;99943.03;;;9.65
24740;BMP280;45234;48.148;17.128;2023-05-10T03:55:15;99945.19;;;9.61
24740;BMP280;45234;48.148;17.128;2023-05-10T03:57:45;99947.59;;;9.63
24740;BMP280;45234;48.148;17.128;2023-05-10T04:00:12;99953.75;;;9.61
24740;BMP280;45234;48.148;17.128;2023-05-10T04:02:42;99951.78;;;9.64
24740;BMP280;45234;48.148;17.128;2023-05-10T04:05:15;99960.41;;;9.71
24740;BMP280;45234;48.148;17.128;2023-05-10T04:07:42;99960.22;;;9.72
24740;BMP280;45234;48.148;17.128;2023-05-10T04:10:11;99956.97;;;9.64
24740;BMP280;45234;48.148;17.128;2023-05-10T04:12:38;99960.78;;;9.68
24740;BMP280;45234;48.148;17.128;2023-05-10T04:15:05;99967.59;;;9.75
24740;BMP280;45234;48.148;17.128;2023-05-10T04:17:33;99972.84;;;9.82
24740;BMP280;45234;48.148;17.128;2023-05-10T04:20:00;99974.69;;;9.88
24740;BMP280;45234;48.148;17.128;2023-05-10T04:22:29;99967.75;;;9.95
24740;BMP280;45234;48.148;17.128;2023-05-10T04:24:56;99983.38;;;10.08
24740;BMP280;45234;48.148;17.128;2023-05-10T04:27:23;99980.25;;;10.13
24740;BMP280;45234;48.148;17.128;2023-05-10T04:29:49;99981.78;;;10.07
24740;BMP280;45234;48.148;17.128;2023-05-10T04:32:17;99982.44;;;10.09
24740;BMP280;45234;48.148;17.128;2023-05-10T04:34:45;99977.09;;;10.17
24740;BMP280;45234;48.148;17.128;2023-05-10T04:37:12;99992.47;;;10.25
24740;BMP280;45234;48.148;17.128;2023-05-10T04:39:39;99984.13;;;10.30
24740;BMP280;45234;48.148;17.128;2023-05-10T04:42:08;99986.16;;;10.35
24740;BMP280;45234;48.148;17.128;2023-05-10T04:44:35;99984.38;;;10.35
24740;BMP280;45234;48.148;17.128;2023-05-10T04:47:03;99993.53;;;10.38
24740;BMP280;45234;48.148;17.128;2023-05-10T04:49:30;99994.19;;;10.46
24740;BMP280;45234;48.148;17.128;2023-05-10T04:51:57;100001.00;;;10.54
24740;BMP280;45234;48.148;17.128;2023-05-10T04:54:24;99987.91;;;10.62
24740;BMP280;45234;48.148;17.128;2023-05-10T04:56:51;99988.31;;;10.72
24740;BMP280;45234;48.148;17.128;2023-05-10T04:59:18;99993.13;;;10.69
24740;BMP280;45234;48.148;17.128;2023-05-10T05:01:45;99997.34;;;10.76
24740;BMP280;45234;48.148;17.128;2023-05-10T05:04:12;99994.41;;;10.92
24740;BMP280;45234;48.148;17.128;2023-05-10T05:06:38;99981.09;;;11.09
24740;BMP280;45234;48.148;17.128;2023-05-10T05:09:05;99990.88;;;11.13
24740;BMP280;45234;48.148;17.128;2023-05-10T05:11:32;99985.50;;;11.21
24740;BMP280;45234;48.148;17.128;2023-05-10T05:13:59;99989.94;;;11.74
24740;BMP280;45234;48.148;17.128;2023-05-10T05:16:26;99992.84;;;12.37
24740;BMP280;45234;48.148;17.128;2023-05-10T05:18:53;100002.41;;;13.00
24740;BMP280;45234;48.148;17.128;2023-05-10T05:21:20;100001.13;;;13.66
24740;BMP280;45234;48.148;17.128;2023-05-10T05:23:48;100005.63;;;14.38
24740;BMP280;45234;48.148;17.128;2023-05-10T05:26:14;100010.09;;;14.98
24740;BMP280;45234;48.148;17.128;2023-05-10T05:28:42;100011.75;;;16.04
24740;BMP280;45234;48.148;17.128;2023-05-10T05:31:11;100011.94;;;17.32
24740;BMP280;45234;48.148;17.128;2023-05-10T05:33:38;100012.09;;;19.15
24740;BMP280;45234;48.148;17.128;2023-05-10T05:36:06;100020.56;;;20.62
24740;BMP280;45234;48.148;17.128;2023-05-10T05:38:33;100011.28;;;21.90
24740;BMP280;45234;48.148;17.128;2023-05-10T05:41:00;100013.34;;;22.42
24740;BMP280;45234;48.148;17.128;2023-05-10T05:43:27;100015.84;;;22.57
24740;BMP280;45234;48.148;17.128;2023-05-10T05:45:54;100023.13;;;23.23
24740;BMP280;45234;48.148;17.128;2023-05-10T05:48:21;100026.06;;;23.83
24740;BMP280;45234;48.148;17.128;2023-05-10T05:50:48;100023.09;;;24.08
24740;BMP280;45234;48.148;17.128;2023-05-10T05:53:15;100024.34;;;24.62
24740;BMP280;45234;48.148;17.128;2023-05-10T05:55:52;100019.34;;;24.74
24740;BMP280;45234;48.148;17.128;2023-05-10T05:58:20;100022.09;;;24.36
24740;BMP280;45234;48.148;17.128;2023-05-10T06:00:47;100022.84;;;23.86
24740;BMP280;45234;48.148;17.128;2023-05-10T06:03:14;100020.28;;;23.99
24740;BMP280;45234;48.148;17.128;2023-05-10T06:05:42;100019.16;;;24.38
24740;BMP280;45234;48.148;17.128;2023-05-10T06:08:09;100015.47;;;24.52
24740;BMP280;45234;48.148;17.128;2023-05-10T06:10:36;100022.31;;;24.86
24740;BMP280;45234;48.148;17.128;2023-05-10T06:13:03;100016.19;;;24.99
24740;BMP280;45234;48.148;17.128;2023-05-10T06:15:30;100016.00;;;25.23
24740;BMP280;45234;48.148;17.128;2023-05-10T06:17:59;100012.47;;;25.63
24740;BMP280;45234;48.148;17.128;2023-05-10T06:20:26;100024.28;;;25.93
24740;BMP280;45234;48.148;17.128;2023-05-10T06:22:54;100019.94;;;25.75
24740;BMP280;45234;48.148;17.128;2023-05-10T06:25:21;100025.19;;;25.89
24740;BMP280;45234;48.148;17.128;2023-05-10T06:27:48;100019.47;;;25.59
24740;BMP280;45234;48.148;17.128;2023-05-10T06:30:19;100020.91;;;25.29
24740;BMP280;45234;48.148;17.128;2023-05-10T06:32:47;100021.03;;;25.24
24740;BMP280;45234;48.148;17.128;2023-05-10T06:35:13;100026.81;;;25.26
24740;BMP280;45234;48.148;17.128;2023-05-10T06:37:41;100023.28;;;25.31
24740;BMP280;45234;48.148;17.128;2023-05-10T06:40:14;100028.66;;;25.39
24740;BMP280;45234;48.148;17.128;2023-05-10T06:42:41;100026.78;;;25.40
24740;BMP280;45234;48.148;17.128;2023-05-10T06:45:09;100022.13;;;25.23
24740;BMP280;45234;48.148;17.128;2023-05-10T06:47:36;100028.78;;;25.34
24740;BMP280;45234;48.148;17.128;2023-05-10T06:50:05;100025.59;;;25.32
24740;BMP280;45234;48.148;17.128;2023-05-10T06:52:32;100036.66;;;25.26
24740;BMP280;45234;48.148;17.128;2023-05-10T06:54:59;100024.38;;;24.43
24740;BMP280;45234;48.148;17.128;2023-05-10T06:57:29;100024.22;;;24.34
24740;BMP280;45234;48.148;17.128;2023-05-10T07:00:02;100014.59;;;24.57
24740;BMP280;45234;48.148;17.128;2023-05-10T07:02:33;100026.06;;;24.52
24740;BMP280;45234;48.148;17.128;2023-05-10T07:05:00;100021.88;;;24.51
24740;BMP280;45234;48.148;17.128;2023-05-10T07:07:31;100027.63;;;24.53
24740;BMP280;45234;48.148;17.128;2023-05-10T07:09:58;100026.56;;;24.54
24740;BMP280;45234;48.148;17.128;2023-05-10T07:12:25;100029.66;;;24.29
24740;BMP280;45234;48.148;17.128;2023-05-10T07:14:52;100019.06;;;24.10
24740;BMP280;45234;48.148;17.128;2023-05-10T07:17:21;100028.75;;;23.59
24740;BMP280;45234;48.148;17.128;2023-05-10T07:19:49;100023.16;;;23.42
24740;BMP280;45234;48.148;17.128;2023-05-10T07:22:18;100028.16;;;23.24
24740;BMP280;45234;48.148;17.128;2023-05-10T07:24:46;100028.28;;;23.09
24740;BMP280;45234;48.148;17.128;2023-05-10T07:27:13;100018.50;;;23.10
24740;BMP280;45234;48.148;17.128;2023-05-10T07:29:40;100033.41;;;23.48
24740;BMP280;45234;48.148;17.128;2023-05-10T07:32:07;100028.16;;;23.43
24740;BMP280;45234;48.148;17.128;2023-05-10T07:34:34;100014.63;;;23.26
24740;BMP280;45234;48.148;17.128;2023-05-10T07:37:01;100025.31;;;23.16
24740;BMP280;45234;48.148;17.128;2023-05-10T07:39:28;100025.84;;;23.18
24740;BMP280;45234;48.148;17.128;2023-05-10T07:41:56;100030.88;;;23.38
24740;BMP280;45234;48.148;17.128;2023-05-10T07:44:24;100020.28;;;23.62
24740;BMP280;45234;48.148;17.128;2023-05-10T07:46:52;100021.50;;;23.69
24740;BMP280;45234;48.148;17.128;2023-05-10T07:49:21;100029.78;;;23.82
24740;BMP280;45234;48.148;17.128;2023-05-10T07:51:50;100027.16;;;23.82
24740;BMP280;45234;48.148;17.128;2023-05-10T07:54:18;100023.06;;;23.70
24740;BMP280;45234;48.148;17.128;2023-05-10T07:56:46;100027.97;;;23.40
24740;BMP280;45234;48.148;17.128;2023-05-10T07:59:16;100016.59;;;23.39
24740;BMP280;45234;48.148;17.128;2023-05-10T08:01:47;100025.38;;;23.35
24740;BMP280;45234;48.148;17.128;2023-05-10T08:04:14;100020.31;;;23.38
24740;BMP280;45234;48.148;17.128;2023-05-10T08:06:42;100020.69;;;23.50
24740;BMP280;45234;48.148;17.128;2023-05-10T08:09:09;100016.78;;;23.66
24740;BMP280;45234;48.148;17.128;2023-05-10T08:11:37;100018.28;;;23.91
24740;BMP280;45234;48.148;17.128;2023-05-10T08:14:04;100028.09;;;23.91
24740;BMP280;45234;48.148;17.128;2023-05-10T08:16:31;100029.34;;;23.75
24740;BMP280;45234;48.148;17.128;2023-05-10T08:19:00;100038.94;;;23.70
24740;BMP280;45234;48.148;17.128;2023-05-10T08:21:27;100029.41;;;23.51
24740;BMP280;45234;48.148;17.128;2023-05-10T08:23:57;100022.28;;;23.04
24740;BMP280;45234;48.148;17.128;2023-05-10T08:26:24;100025.16;;;22.78
24740;BMP280;45234;48.148;17.128;2023-05-10T08:28:51;100022.03;;;22.76
24740;BMP280;45234;48.148;17.128;2023-05-10T08:31:19;100021.97;;;22.81
24740;BMP280;45234;48.148;17.128;2023-05-10T08:33:46;100026.69;;;22.84
24740;BMP280;45234;48.148;17.128;2023-05-10T08:36:13;100019.28;;;22.86
24740;BMP280;45234;48.148;17.128;2023-05-10T08:38:44;100033.53;;;22.91
24740;BMP280;45234;48.148;17.128;2023-05-10T08:41:11;100018.88;;;22.98
24740;BMP280;45234;48.148;17.128;2023-05-10T08:43:40;100025.19;;;22.73
24740;BMP280;45234;48.148;17.128;2023-05-10T08:46:10;100038.63;;;22.82
24740;BMP280;45234;48.148;17.128;2023-05-10T08:48:40;100034.28;;;22.62
24740;BMP280;45234;48.148;17.128;2023-05-10T08:51:11;100036.56;;;22.40
24740;BMP280;45234;48.148;17.128;2023-05-10T08:53:39;100032.72;;;22.27
24740;BMP280;45234;48.148;17.128;2023-05-10T08:56:08;100030.31;;;22.26
24740;BMP280;45234;48.148;17.128;2023-05-10T08:58:37;100026.72;;;22.17
24740;BMP280;45234;48.148;17.128;2023-05-10T09:01:05;100043.16;;;22.03
24740;BMP280;45234;48.148;17.128;2023-05-10T09:03:33;100027.19;;;21.80
24740;BMP280;45234;48.148;17.128;2023-05-10T09:06:01;100025.59;;;21.79
24740;BMP280;45234;48.148;17.128;2023-05-10T09:08:28;100018.63;;;21.39
24740;BMP280;45234;48.148;17.128;2023-05-10T09:10:55;100016.06;;;20.98
24740;BMP280;45234;48.148;17.128;2023-05-10T09:13:23;100029.72;;;21.20
24740;BMP280;45234;48.148;17.128;2023-05-10T09:15:51;100022.38;;;20.92
24740;BMP280;45234;48.148;17.128;2023-05-10T09:18:19;100014.47;;;20.92
24740;BMP280;45234;48.148;17.128;2023-05-10T09:20:46;100020.53;;;20.98
24740;BMP280;45234;48.148;17.128;2023-05-10T09:23:13;100023.16;;;21.13
24740;BMP280;45234;48.148;17.128;2023-05-10T09:25:42;100022.06;;;21.34
24740;BMP280;45234;48.148;17.128;2023-05-10T09:28:09;100020.75;;;21.16
24740;BMP280;45234;48.148;17.128;2023-05-10T09:30:36;100018.94;;;20.97
24740;BMP280;45234;48.148;17.128;2023-05-10T09:33:04;100036.34;;;20.98
24740;BMP280;45234;48.148;17.128;2023-05-10T09:35:32;100026.06;;;21.06
24740;BMP280;45234;48.148;17.128;2023-05-10T09:38:03;100018.16;;;20.96
24740;BMP280;45234;48.148;17.128;2023-05-10T09:40:30;100017.88;;;21.13
24740;BMP280;45234;48.148;17.128;2023-05-10T09:43:00;100013.44;;;21.03
24740;BMP280;45234;48.148;17.128;2023-05-10T09:45:35;100003.94;;;21.02
24740;BMP280;45234;48.148;17.128;2023-05-10T09:48:05;99990.78;;;20.92
24740;BMP280;45234;48.148;17.128;2023-05-10T09:50:33;100009.72;;;21.09
24740;BMP280;45234;48.148;17.128;2023-05-10T09:53:02;100005.03;;;20.91
24740;BMP280;45234;48.148;17.128;2023-05-10T09:55:43;99994.94;;;21.08
24740;BMP280;45234;48.148;17.128;2023-05-10T09:58:14;99998.69;;;20.92
24740;BMP280;45234;48.148;17.128;2023-05-10T10:00:43;100000.81;;;20.70
24740;BMP280;45234;48.148;17.128;2023-05-10T10:03:15;99995.00;;;20.27
24740;BMP280;45234;48.148;17.128;2023-05-10T10:05:43;100003.06;;;19.95
24740;BMP280;45234;48.148;17.128;2023-05-10T10:08:11;99991.72;;;19.85
24740;BMP280;45234;48.148;17.128;2023-05-10T10:10:39;99992.03;;;19.98
24740;BMP280;45234;48.148;17.128;2023-05-10T10:13:08;99985.16;;;19.92
24740;BMP280;45234;48.148;17.128;2023-05-10T10:15:36;99999.94;;;20.09
24740;BMP280;45234;48.148;17.128;2023-05-10T10:18:03;99975.22;;;20.10
24740;BMP280;45234;48.148;17.128;2023-05-10T10:20:32;99988.66;;;20.18
24740;BMP280;45234;48.148;17.128;2023-05-10T10:23:00;99994.41;;;20.15
24740;BMP280;45234;48.148;17.128;2023-05-10T10:25:27;99984.88;;;19.89
24740;BMP280;45234;48.148;17.128;2023-05-10T10:28:11;99979.03;;;19.72
24740;BMP280;45234;48.148;17.128;2023-05-10T10:30:48;99988.03;;;19.86
24740;BMP280;45234;48.148;17.128;2023-05-10T10:36:43;99982.69;;;19.71
24740;BMP280;45234;48.148;17.128;2023-05-10T10:39:12;99976.88;;;19.58
24740;BMP280;45234;48.148;17.128;2023-05-10T10:41:50;99979.69;;;19.47
24740;BMP280;45234;48.148;17.128;2023-05-10T10:47:06;99965.31;;;19.64
24740;BMP280;45234;48.148;17.128;2023-05-10T10:49:49;99972.75;;;19.83
24740;BMP280;45234;48.148;17.128;2023-05-10T11:00:30;99953.63;;;20.08
24740;BMP280;45234;48.148;17.128;2023-05-10T11:03:10;99966.47;;;19.89
24740;BMP280;45234;48.148;17.128;2023-05-10T11:05:46;99958.28;;;19.80
24740;BMP280;45234;48.148;17.128;2023-05-10T11:08:30;99962.16;;;19.62
24740;BMP280;45234;48.148;17.128;2023-05-10T11:15:56;99951.28;;;20.16
24740;BMP280;45234;48.148;17.128;2023-05-10T11:18:31;99954.19;;;20.30
24740;BMP280;45234;48.148;17.128;2023-05-10T11:20:59;99957.09;;;20.54
24740;BMP280;45234;48.148;17.128;2023-05-10T11:26:10;99948.41;;;20.48
24740;BMP280;45234;48.148;17.128;2023-05-10T11:28:45;99954.97;;;20.56
24740;BMP280;45234;48.148;17.128;2023-05-10T11:31:19;99956.00;;;20.75
24740;BMP280;45234;48.148;17.128;2023-05-10T11:33:50;99956.00;;;20.75
24740;BMP280;45234;48.148;17.128;2023-05-10T11:36:53;99955.25;;;20.49
24740;BMP280;45234;48.148;17.128;2023-05-10T11:39:30;99952.06;;;20.47
24740;BMP280;45234;48.148;17.128;2023-05-10T11:41:58;99969.44;;;20.33
24740;BMP280;45234;48.148;17.128;2023-05-10T11:44:35;99954.94;;;20.05
24740;BMP280;45234;48.148;17.128;2023-05-10T11:47:02;99940.69;;;19.91
24740;BMP280;45234;48.148;17.128;2023-05-10T11:49:31;99944.63;;;19.88
24740;BMP280;45234;48.148;17.128;2023-05-10T11:52:05;99942.78;;;19.84
24740;BMP280;45234;48.148;17.128;2023-05-10T11:54:33;99942.28;;;20.02
24740;BMP280;45234;48.148;17.128;2023-05-10T11:57:01;99944.94;;;20.22
24740;BMP280;45234;48.148;17.128;2023-05-10T11:59:29;99954.94;;;20.45
24740;BMP280;45234;48.148;17.128;2023-05-10T12:01:56;99941.78;;;20.56
24740;BMP280;45234;48.148;17.128;2023-05-10T12:04:26;99941.53;;;20.47
24740;BMP280;45234;48.148;17.128;2023-05-10T12:06:55;99954.94;;;20.45
24740;BMP280;45234;48.148;17.128;2023-05-10T12:09:22;99926.00;;;20.30
24740;BMP280;45234;48.148;17.128;2023-05-10T12:12:09;99926.53;;;20.53
24740;BMP280;45234;48.148;17.128;2023-05-10T12:14:37;99937.31;;;20.56
24740;BMP280;45234;48.148;17.128;2023-05-10T12:17:04;99929.16;;;20.42
24740;BMP280;45234;48.148;17.128;2023-05-10T12:19:37;99943.13;;;20.23
24740;BMP280;45234;48.148;17.128;2023-05-10T12:22:06;99932.31;;;20.29
24740;BMP280;45234;48.148;17.128;2023-05-10T12:24:37;99929.16;;;20.42
24740;BMP280;45234;48.148;17.128;2023-05-10T12:27:09;99931.03;;;20.52
24740;BMP280;45234;48.148;17.128;2023-05-10T12:29:35;99914.41;;;20.47
24740;BMP280;45234;48.148;17.128;2023-05-10T12:32:03;99916.28;;;20.41
24740;BMP280;45234;48.148;17.128;2023-05-10T12:34:34;99917.59;;;20.18
24740;BMP280;45234;48.148;17.128;2023-05-10T12:37:04;99926.00;;;20.15
24740;BMP280;45234;48.148;17.128;2023-05-10T12:39:44;99930.22;;;20.06
24740;BMP280;45234;48.148;17.128;2023-05-10T12:42:15;99921.28;;;20.17
24740;BMP280;45234;48.148;17.128;2023-05-10T12:44:45;99915.75;;;20.24
24740;BMP280;45234;48.148;17.128;2023-05-10T12:47:11;99916.53;;;20.19
24740;BMP280;45234;48.148;17.128;2023-05-10T12:49:39;99912.03;;;20.15
24740;BMP280;45234;48.148;17.128;2023-05-10T12:52:06;99913.63;;;20.26
24740;BMP280;45234;48.148;17.128;2023-05-10T12:54:34;99910.22;;;20.40
24740;BMP280;45234;48.148;17.128;2023-05-10T12:57:01;99896.00;;;20.52
24740;BMP280;45234;48.148;17.128;2023-05-10T12:59:28;99913.09;;;20.59
24740;BMP280;45234;48.148;17.128;2023-05-10T13:01:56;99904.16;;;20.50
24740;BMP280;45234;48.148;17.128;2023-05-10T13:04:24;99893.59;;;20.55
24740;BMP280;45234;48.148;17.128;2023-05-10T13:06:52;99901.25;;;20.52
24740;BMP280;45234;48.148;17.128;2023-05-10T13:09:21;99905.75;;;20.41
24740;BMP280;45234;48.148;17.128;2023-05-10T13:11:49;99898.88;;;20.25
24740;BMP280;45234;48.148;17.128;2023-05-10T13:14:17;99892.28;;;20.12
24740;BMP280;45234;48.148;17.128;2023-05-10T13:16:46;99882.59;;;20.18
24740;BMP280;45234;48.148;17.128;2023-05-10T13:19:13;99877.84;;;20.10
24740;BMP280;45234;48.148;17.128;2023-05-10T13:21:40;99884.91;;;19.99
24740;BMP280;45234;48.148;17.128;2023-05-10T13:24:08;99889.69;;;19.97
24740;BMP280;45234;48.148;17.128;2023-05-10T13:26:35;99879.19;;;20.07
24740;BMP280;45234;48.148;17.128;2023-05-10T13:29:04;99877.56;;;20.16
24740;BMP280;45234;48.148;17.128;2023-05-10T13:31:30;99872.31;;;20.21
24740;BMP280;45234;48.148;17.128;2023-05-10T13:33:57;99867.84;;;20.27
24740;BMP280;45234;48.148;17.128;2023-05-10T13:36:24;99866.78;;;20.23
24740;BMP280;45234;48.148;17.128;2023-05-10T13:38:54;99869.69;;;20.16
24740;BMP280;45234;48.148;17.128;2023-05-10T13:41:20;99875.47;;;20.08
24740;BMP280;45234;48.148;17.128;2023-05-10T13:43:48;99893.09;;;19.97
24740;BMP280;45234;48.148;17.128;2023-05-10T13:46:15;99869.41;;;19.87
24740;BMP280;45234;48.148;17.128;2023-05-10T13:48:42;99864.38;;;19.81
24740;BMP280;45234;48.148;17.128;2023-05-10T13:51:09;99872.56;;;19.89
24740;BMP280;45234;48.148;17.128;2023-05-10T13:53:36;99865.47;;;19.85
24740;BMP280;45234;48.148;17.128;2023-05-10T13:56:05;99858.34;;;19.80
24740;BMP280;45234;48.148;17.128;2023-05-10T13:58:32;99852.84;;;20.02
24740;BMP280;45234;48.148;17.128;2023-05-10T14:01:00;99847.03;;;20.30
24740;BMP280;45234;48.148;17.128;2023-05-10T14:03:28;99850.72;;;20.50
24740;BMP280;45234;48.148;17.128;2023-05-10T14:05:55;99847.00;;;20.51
24740;BMP280;45234;48.148;17.128;2023-05-10T14:08:24;99849.63;;;20.56
24740;BMP280;45234;48.148;17.128;2023-05-10T14:10:54;99853.06;;;20.51
24740;BMP280;45234;48.148;17.128;2023-05-10T14:13:24;99858.63;;;20.44
24740;BMP280;45234;48.148;17.128;2023-05-10T14:15:52;99847.03;;;20.40
24740;BMP280;45234;48.148;17.128;2023-05-10T14:18:20;99852.56;;;20.44
24740;BMP280;45234;48.148;17.128;2023-05-10T14:20:53;99850.47;;;20.41
24740;BMP280;45234;48.148;17.128;2023-05-10T14:23:21;99853.09;;;20.36
24740;BMP280;45234;48.148;17.128;2023-05-10T14:25:51;99849.69;;;20.30
24740;BMP280;45234;48.148;17.128;2023-05-10T14:28:18;99857.56;;;20.35
24740;BMP280;45234;48.148;17.128;2023-05-10T14:30:47;99843.91;;;20.28
24740;BMP280;45234;48.148;17.128;2023-05-10T14:33:18;99847.03;;;20.30
24740;BMP280;45234;48.148;17.128;2023-05-10T14:35:50;99854.94;;;20.35
24740;BMP280;45234;48.148;17.128;2023-05-10T14:38:18;99842.81;;;20.34
24740;BMP280;45234;48.148;17.128;2023-05-10T14:40:47;99840.47;;;20.18
24740;BMP280;45234;48.148;17.128;2023-05-10T14:43:19;99842.03;;;20.03
24740;BMP280;45234;48.148;17.128;2023-05-10T14:45:50;99840.19;;;20.04
24740;BMP280;45234;48.148;17.128;2023-05-10T14:48:37;99842.84;;;19.94
24740;BMP280;45234;48.148;17.128;2023-05-10T14:51:04;99837.06;;;19.97